Time;durP1;ratioP1;P1;durP2;ratioP2;P2;SDS_P1;SDS_P2;PMS_P1;PMS_P2;Temp;Humidity;BMP_temperature;BMP_pressure;BME280_temperature;BME280_humidity;BME280_pressure;Samples;Min_cycle;Max_cycle;Signal;HPM_P1;HPM_P2
2022/07/01 00:02:22;;;;;;;3.17;0.80;;;20.40;95.40;;;;;;4993001;28;20946;-67
2022/07/01 00:04:51;;;;;;;3.47;0.93;;;20.40;95.10;;;;;;4992806;28;20450;-67
2022/07/01 00:07:18;;;;;;;1.93;0.80;;;20.40;94.90;;;;;;4992825;28;20479;-67
2022/07/01 00:09:45;;;;;;;2.10;0.90;;;20.40;95.00;;;;;;4993051;28;20443;-67
2022/07/01 00:12:13;;;;;;;1.80;0.90;;;20.40;95.00;;;;;;4992874;28;20501;-67
2022/07/01 00:14:40;;;;;;;3.67;0.70;;;20.40;95.10;;;;;;4993054;28;20452;-67
2022/07/01 00:17:07;;;;;;;1.80;0.80;;;20.40;94.90;;;;;;4992780;28;20515;-67
2022/07/01 00:19:34;;;;;;;1.93;0.83;;;20.30;94.60;;;;;;4991960;28;20487;-67
2022/07/01 00:22:03;;;;;;;2.93;1.00;;;20.30;94.60;;;;;;4992795;28;20479;-67
2022/07/01 00:24:30;;;;;;;1.80;0.80;;;20.30;94.80;;;;;;4992687;28;20443;-67
2022/07/01 00:26:59;;;;;;;3.43;0.97;;;20.30;94.50;;;;;;4993188;28;20842;-67
2022/07/01 00:29:26;;;;;;;2.10;0.83;;;20.30;94.30;;;;;;4992677;28;20471;-67
2022/07/01 00:31:54;;;;;;;2.20;1.10;;;20.30;94.20;;;;;;4992515;28;20776;-67
2022/07/01 00:34:21;;;;;;;2.37;1.07;;;20.20;94.10;;;;;;4992157;28;20436;-67
2022/07/01 00:36:48;;;;;;;2.40;1.30;;;20.20;94.20;;;;;;4992723;28;20946;-67
2022/07/01 00:39:16;;;;;;;1.90;1.03;;;20.20;94.10;;;;;;4992584;28;20912;-67
2022/07/01 00:41:43;;;;;;;2.10;1.10;;;20.20;94.30;;;;;;4992568;28;20797;-67
2022/07/01 00:44:18;;;;;;;1.80;1.00;;;20.20;94.30;;;;;;4991968;28;20483;-67
2022/07/01 00:46:45;;;;;;;2.00;1.20;;;20.10;94.10;;;;;;4992580;28;20490;-67
2022/07/01 00:49:12;;;;;;;2.63;1.40;;;20.10;94.20;;;;;;4992611;28;20475;-67
2022/07/01 00:51:39;;;;;;;2.27;1.23;;;20.10;94.20;;;;;;4991905;28;20440;-67
2022/07/01 00:54:07;;;;;;;2.50;1.40;;;20.10;94.20;;;;;;4992076;28;20811;-67
2022/07/01 00:56:36;;;;;;;2.10;1.03;;;20.10;94.10;;;;;;4992527;28;20844;-67
2022/07/01 00:59:03;;;;;;;2.40;1.10;;;20.10;94.10;;;;;;4992662;28;20439;-68
2022/07/01 01:01:30;;;;;;;2.70;1.30;;;20.00;94.00;;;;;;4992446;28;20448;-67
2022/07/01 01:03:58;;;;;;;1.93;1.00;;;20.10;94.20;;;;;;4996377;28;20435;-67
2022/07/01 01:06:25;;;;;;;2.10;1.00;;;20.00;94.00;;;;;;4995911;28;20856;-67
2022/07/01 01:08:52;;;;;;;2.17;1.13;;;20.10;94.10;;;;;;4996147;28;20443;-67
2022/07/01 01:11:21;;;;;;;1.73;1.00;;;20.00;93.90;;;;;;4996066;28;20444;-67
2022/07/01 01:13:49;;;;;;;4.80;1.07;;;20.00;94.00;;;;;;4996453;28;20501;-67
2022/07/01 01:16:19;;;;;;;2.27;1.17;;;19.90;93.90;;;;;;4996114;28;20789;-67
2022/07/01 01:18:46;;;;;;;2.30;1.20;;;19.90;94.10;;;;;;4995624;28;20534;-67
2022/07/01 01:21:15;;;;;;;2.17;1.10;;;19.80;94.10;;;;;;4995664;28;20447;-67
2022/07/01 01:23:42;;;;;;;3.50;1.03;;;19.80;94.10;;;;;;4996201;28;20459;-67
2022/07/01 01:26:17;;;;;;;3.43;0.90;;;19.80;93.90;;;;;;4995689;28;20804;-67
2022/07/01 01:28:45;;;;;;;4.07;0.83;;;19.80;94.00;;;;;;4995896;28;20554;-67
2022/07/01 01:31:12;;;;;;;2.80;1.17;;;19.80;94.20;;;;;;4995685;28;20443;-67
2022/07/01 01:33:39;;;;;;;2.73;1.07;;;19.80;94.00;;;;;;4996194;28;20454;-67
2022/07/01 01:36:07;;;;;;;2.50;1.50;;;19.80;94.20;;;;;;4995679;28;20499;-67
2022/07/01 01:38:37;;;;;;;2.00;1.30;;;19.80;94.40;;;;;;4995775;28;20965;-67
2022/07/01 01:41:04;;;;;;;3.63;1.23;;;19.80;94.30;;;;;;4995452;28;20443;-67
2022/07/01 01:43:34;;;;;;;2.57;1.30;;;19.80;94.50;;;;;;4995368;28;20448;-67
2022/07/01 01:46:02;;;;;;;1.80;1.00;;;19.80;94.40;;;;;;4995644;28;20435;-68
2022/07/01 01:48:30;;;;;;;2.30;1.30;;;19.80;94.30;;;;;;4995415;28;20518;-69
2022/07/01 01:50:57;;;;;;;2.90;1.50;;;19.70;94.00;;;;;;4995027;28;20443;-67
2022/07/01 01:53:24;;;;;;;2.00;1.40;;;19.60;94.20;;;;;;4995521;28;20506;-67
2022/07/01 01:55:53;;;;;;;2.93;1.73;;;19.50;94.40;;;;;;4995438;28;20448;-67
2022/07/01 01:58:20;;;;;;;2.30;1.33;;;19.40;94.40;;;;;;4995353;28;20480;-67
2022/07/01 02:00:47;;;;;;;2.90;1.73;;;19.40;94.60;;;;;;4995594;28;20448;-67
2022/07/01 02:03:14;;;;;;;2.40;1.40;;;19.50;94.60;;;;;;4995143;28;20439;-67
2022/07/01 02:05:41;;;;;;;2.70;1.30;;;19.50;94.70;;;;;;4995469;28;20440;-67
2022/07/01 02:08:08;;;;;;;4.80;1.40;;;19.50;95.00;;;;;;4994879;28;20554;-67
2022/07/01 02:10:35;;;;;;;3.60;1.53;;;19.40;94.50;;;;;;4995507;28;20450;-66
2022/07/01 02:13:04;;;;;;;2.30;1.57;;;19.50;95.00;;;;;;4994387;28;20490;-68
2022/07/01 02:15:31;;;;;;;5.27;1.90;;;19.50;95.20;;;;;;4995388;28;20507;-67
2022/07/01 02:17:58;;;;;;;2.50;1.60;;;19.40;95.10;;;;;;4994593;28;20538;-67
2022/07/01 02:20:25;;;;;;;3.70;1.53;;;19.40;95.30;;;;;;4994990;28;20443;-67
2022/07/01 02:22:52;;;;;;;2.30;1.47;;;19.30;95.20;;;;;;4994236;28;20444;-67
2022/07/01 02:25:20;;;;;;;3.00;1.43;;;19.30;95.40;;;;;;4994713;28;20442;-67
2022/07/01 02:27:48;;;;;;;3.40;1.33;;;19.30;95.50;;;;;;4994725;28;20661;-67
2022/07/01 02:30:16;;;;;;;2.20;1.40;;;19.20;95.60;;;;;;4994434;28;20972;-67
2022/07/01 02:32:44;;;;;;;4.60;3.20;;;19.10;95.70;;;;;;4994849;28;20444;-67
2022/07/01 02:35:11;;;;;;;3.30;1.80;;;19.00;95.70;;;;;;4994283;28;20451;-67
2022/07/01 02:37:40;;;;;;;2.33;1.37;;;19.10;96.00;;;;;;4994903;28;20439;-67
2022/07/01 02:40:09;;;;;;;1.80;0.90;;;19.20;95.70;;;;;;4994238;28;20451;-68
2022/07/01 02:42:36;;;;;;;2.73;1.33;;;19.20;95.40;;;;;;4994654;28;20531;-70
2022/07/01 02:45:06;;;;;;;2.30;1.30;;;19.20;95.40;;;;;;4994050;28;20467;-67
2022/07/01 02:47:35;;;;;;;2.27;1.40;;;19.20;95.10;;;;;;4994344;28;20491;-67
2022/07/01 02:50:03;;;;;;;3.30;1.17;;;19.20;95.20;;;;;;4994487;28;20468;-67
2022/07/01 02:52:30;;;;;;;2.10;1.40;;;19.20;95.30;;;;;;4994713;28;20534;-66
2022/07/01 02:54:57;;;;;;;1.90;1.20;;;19.30;95.80;;;;;;4994017;28;20442;-67
2022/07/01 02:57:24;;;;;;;3.87;1.80;;;19.30;95.30;;;;;;4994006;28;20935;-67
2022/07/01 02:59:51;;;;;;;2.87;1.33;;;19.30;95.40;;;;;;4993938;28;20490;-67
2022/07/01 03:02:19;;;;;;;2.10;1.17;;;19.40;95.40;;;;;;4994162;28;20490;-67
2022/07/01 03:04:48;;;;;;;2.23;1.30;;;19.40;95.20;;;;;;4993665;28;20517;-68
2022/07/01 03:07:15;;;;;;;3.10;1.43;;;19.40;95.20;;;;;;4994275;28;20570;-67
2022/07/01 03:09:43;;;;;;;2.40;1.23;;;19.50;95.30;;;;;;4994042;28;20494;-67
2022/07/01 03:12:27;;;;;;;2.53;1.20;;;19.50;95.30;;;;;;4993542;28;20440;-67
2022/07/01 03:14:56;;;;;;;2.10;1.10;;;19.50;94.80;;;;;;4993787;28;20436;-67
2022/07/01 03:17:23;;;;;;;2.83;1.80;;;19.50;94.80;;;;;;4993890;28;20443;-67
2022/07/01 03:19:52;;;;;;;2.63;1.40;;;19.50;94.80;;;;;;4994164;28;20444;-67
2022/07/01 03:22:20;;;;;;;2.17;1.00;;;19.50;94.60;;;;;;4993027;28;20458;-67
2022/07/01 03:24:48;;;;;;;2.53;1.53;;;19.50;94.40;;;;;;4993677;28;20530;-66
2022/07/01 03:27:15;;;;;;;2.10;1.23;;;19.40;94.40;;;;;;4993331;28;20555;-69
2022/07/01 03:29:42;;;;;;;3.83;1.20;;;19.40;94.60;;;;;;4993745;28;20463;-67
2022/07/01 03:32:10;;;;;;;2.70;1.10;;;19.40;94.50;;;;;;4993616;28;20443;-67
2022/07/01 03:34:38;;;;;;;2.43;1.53;;;19.30;94.70;;;;;;4993640;28;20436;-67
2022/07/01 03:37:07;;;;;;;2.90;1.83;;;19.30;94.90;;;;;;4993388;28;20922;-67
2022/07/01 03:39:35;;;;;;;2.57;1.60;;;19.30;95.30;;;;;;4993360;28;20857;-67
2022/07/01 03:42:03;;;;;;;2.30;1.33;;;19.30;95.30;;;;;;4992166;28;20444;-67
2022/07/01 03:44:30;;;;;;;2.90;1.60;;;19.40;95.60;;;;;;4993538;28;20447;-66
2022/07/01 03:46:57;;;;;;;4.33;1.20;;;19.40;95.80;;;;;;4993169;28;20522;-67
2022/07/01 03:49:24;;;;;;;2.70;1.20;;;19.40;95.80;;;;;;4993274;28;20531;-67
2022/07/01 03:51:52;;;;;;;2.40;1.50;;;19.40;95.90;;;;;;4993029;28;20439;-67
2022/07/01 03:54:32;;;;;;;2.30;1.40;;;19.50;95.80;;;;;;4992997;28;20506;-67
2022/07/01 03:57:00;;;;;;;2.27;1.30;;;19.50;95.80;;;;;;4973950;28;20531;-67
2022/07/01 03:59:28;;;;;;;6.13;1.30;;;19.50;95.90;;;;;;4975613;28;20532;-67
2022/07/01 04:01:55;;;;;;;2.43;1.33;;;19.50;96.00;;;;;;4993300;28;21009;-67
2022/07/01 04:04:23;;;;;;;2.30;1.20;;;19.50;96.00;;;;;;4993080;28;20531;-67
2022/07/01 04:06:50;;;;;;;2.70;1.37;;;19.50;96.10;;;;;;4993273;28;20490;-67
2022/07/01 04:09:19;;;;;;;2.80;1.27;;;19.50;96.50;;;;;;4993279;28;20455;-67
2022/07/01 04:11:49;;;;;;;2.47;1.37;;;19.50;97.30;;;;;;4993122;28;20997;-67
2022/07/01 04:14:16;;;;;;;3.30;1.27;;;19.40;97.80;;;;;;4993262;28;20435;-67
2022/07/01 04:16:44;;;;;;;3.37;1.70;;;19.40;97.90;;;;;;4992651;28;20451;-67
2022/07/01 04:19:12;;;;;;;5.40;1.20;;;19.40;98.10;;;;;;4992813;28;20523;-67
2022/07/01 04:24:26;;;;;;;2.53;1.60;;;19.20;98.70;;;;;;4993031;28;20443;-67
2022/07/01 04:26:54;;;;;;;4.20;1.83;;;19.20;99.00;;;;;;4993191;28;20487;-67
2022/07/01 04:29:21;;;;;;;2.20;1.50;;;19.20;99.10;;;;;;4992300;28;20466;-67
2022/07/01 04:31:48;;;;;;;2.80;1.50;;;19.20;98.70;;;;;;4993051;28;20452;-67
2022/07/01 04:34:15;;;;;;;4.27;1.77;;;19.30;98.80;;;;;;4992511;28;20444;-67
2022/07/01 04:36:42;;;;;;;5.70;1.70;;;19.30;99.00;;;;;;4993036;28;20507;-67
2022/07/01 04:39:10;;;;;;;5.30;1.70;;;19.40;99.00;;;;;;4996900;28;20486;-67
2022/07/01 04:44:23;;;;;;;2.03;1.30;;;19.50;99.00;;;;;;4996733;28;20563;-67
2022/07/01 04:46:50;;;;;;;3.70;1.70;;;19.50;99.00;;;;;;4997188;28;20447;-69
2022/07/01 04:49:17;;;;;;;2.23;1.53;;;19.50;98.70;;;;;;4995591;28;20881;-67
2022/07/01 04:51:44;;;;;;;3.67;1.80;;;19.50;98.60;;;;;;4996839;28;20443;-67
2022/07/01 04:54:11;;;;;;;3.30;2.10;;;19.50;99.80;;;;;;4996459;28;20486;-67
2022/07/01 04:56:40;;;;;;;2.87;1.97;;;19.60;99.90;;;;;;4996708;28;20930;-67
2022/07/01 04:59:07;;;;;;;2.50;1.70;;;19.60;99.90;;;;;;4996215;28;20471;-67
2022/07/01 05:01:34;;;;;;;2.60;2.07;;;19.70;99.90;;;;;;4996903;28;20447;-68
2022/07/01 05:04:02;;;;;;;3.60;2.00;;;19.70;99.90;;;;;;4996064;28;20471;-67
2022/07/01 05:06:29;;;;;;;2.57;1.50;;;19.70;99.90;;;;;;4996756;28;20479;-67
2022/07/01 05:08:57;;;;;;;2.60;1.90;;;19.70;99.80;;;;;;4996125;28;20475;-67
2022/07/01 05:11:24;;;;;;;2.90;1.87;;;19.80;99.90;;;;;;4993656;28;20439;-67
2022/07/01 05:13:52;;;;;;;3.67;2.30;;;19.70;99.70;;;;;;4994624;28;20966;-67
2022/07/01 05:16:19;;;;;;;3.30;2.20;;;19.70;99.90;;;;;;4994943;28;20466;-67
2022/07/01 05:24:16;;;;;;;2.90;1.77;;;20.00;99.90;;;;;;4994308;28;20423;-67
2022/07/01 05:26:43;;;;;;;3.60;2.07;;;20.10;99.90;;;;;;4993681;28;20466;-70
2022/07/01 05:29:12;;;;;;;2.93;1.83;;;20.20;99.90;;;;;;4989889;28;20486;-67
2022/07/01 05:31:39;;;;;;;2.13;1.10;;;20.30;99.60;;;;;;4994365;28;20538;-68
2022/07/01 05:34:06;;;;;;;2.40;1.60;;;20.40;99.30;;;;;;4994303;28;20501;-67
2022/07/01 05:36:34;;;;;;;2.50;1.53;;;20.40;99.00;;;;;;4993259;28;20455;-68
2022/07/01 05:39:01;;;;;;;2.13;1.40;;;20.40;99.10;;;;;;4993412;28;20440;-67
2022/07/01 05:41:28;;;;;;;5.03;1.50;;;20.50;99.00;;;;;;4993525;28;20538;-67
2022/07/01 05:43:56;;;;;;;2.40;1.43;;;20.50;99.20;;;;;;4993932;28;20474;-67
2022/07/01 05:46:24;;;;;;;3.47;2.10;;;20.50;99.30;;;;;;4993764;28;20467;-67
2022/07/01 05:48:51;;;;;;;2.37;1.87;;;20.50;99.40;;;;;;4993234;28;20475;-67
2022/07/01 05:51:18;;;;;;;5.10;1.67;;;20.60;99.50;;;;;;4994137;28;20447;-67
2022/07/01 05:53:47;;;;;;;2.30;1.40;;;20.70;99.50;;;;;;4993586;28;20443;-67
2022/07/01 05:56:15;;;;;;;2.43;1.60;;;20.80;99.50;;;;;;4989539;28;20440;-67
2022/07/01 05:58:42;;;;;;;2.37;1.37;;;20.90;99.60;;;;;;4992480;28;20509;-67
2022/07/01 06:01:09;;;;;;;2.33;1.30;;;21.10;99.40;;;;;;4988420;28;20499;-67
2022/07/01 06:03:37;;;;;;;3.57;1.50;;;21.30;99.40;;;;;;4988228;28;20443;-68
2022/07/01 06:06:05;;;;;;;2.57;1.47;;;21.50;99.60;;;;;;4989655;28;20497;-68
2022/07/01 06:08:32;;;;;;;2.47;1.50;;;21.60;98.60;;;;;;4992851;28;20483;-67
2022/07/01 06:10:59;;;;;;;1.90;1.27;;;21.60;98.20;;;;;;4993969;28;20447;-66
2022/07/01 06:13:26;;;;;;;2.03;1.23;;;21.50;97.10;;;;;;4993182;28;20822;-67
2022/07/01 06:15:53;;;;;;;2.57;1.20;;;21.40;96.40;;;;;;4993711;28;20515;-67
2022/07/01 06:18:20;;;;;;;2.40;1.43;;;21.40;96.10;;;;;;4993471;28;20457;-67
2022/07/01 06:20:48;;;;;;;2.43;1.70;;;21.40;96.50;;;;;;4993462;28;20440;-67
2022/07/01 06:23:15;;;;;;;2.13;1.23;;;21.30;96.70;;;;;;4993102;28;20435;-67
2022/07/01 06:25:43;;;;;;;4.17;1.60;;;21.10;96.30;;;;;;4993602;28;20498;-67
2022/07/01 06:28:10;;;;;;;2.20;1.20;;;21.10;96.40;;;;;;4992785;28;20483;-67
2022/07/01 06:30:37;;;;;;;2.43;1.60;;;21.10;96.80;;;;;;4991706;28;20993;-67
2022/07/01 06:33:04;;;;;;;2.47;1.20;;;21.10;97.20;;;;;;4992690;28;20526;-68
2022/07/01 06:35:31;;;;;;;2.50;1.20;;;21.10;97.50;;;;;;4993350;28;20494;-67
2022/07/01 06:38:00;;;;;;;2.70;1.70;;;21.20;97.90;;;;;;4993351;28;20447;-71
2022/07/01 06:40:27;;;;;;;2.73;1.83;;;21.20;97.50;;;;;;4992384;28;20502;-67
2022/07/01 06:42:55;;;;;;;2.30;1.30;;;21.20;97.20;;;;;;4988965;28;20440;-67
2022/07/01 06:45:22;;;;;;;5.50;1.50;;;21.20;97.00;;;;;;4991805;28;20460;-67
2022/07/01 06:47:49;;;;;;;2.20;1.30;;;21.20;96.90;;;;;;4992864;28;20782;-67
2022/07/01 06:50:16;;;;;;;4.47;1.87;;;21.20;96.90;;;;;;4992470;28;20440;-69
2022/07/01 06:52:43;;;;;;;2.80;1.50;;;21.20;97.10;;;;;;4989182;28;20778;-67
2022/07/01 06:55:12;;;;;;;3.47;1.80;;;21.20;97.10;;;;;;4992736;28;20534;-67
2022/07/01 06:57:39;;;;;;;2.90;1.50;;;21.20;97.20;;;;;;4993280;28;20494;-67
2022/07/01 07:00:07;;;;;;;4.20;1.27;;;21.20;97.40;;;;;;4991344;28;20439;-68
2022/07/01 07:02:35;;;;;;;2.63;1.63;;;21.10;97.40;;;;;;4992675;28;20444;-68
2022/07/01 07:05:02;;;;;;;4.47;1.77;;;21.10;97.50;;;;;;4992290;28;20502;-67
2022/07/01 07:07:29;;;;;;;3.77;1.50;;;21.20;97.60;;;;;;4992872;28;20447;-68
2022/07/01 07:09:56;;;;;;;3.20;2.00;;;21.20;97.70;;;;;;4991194;28;20538;-67
2022/07/01 07:12:25;;;;;;;4.77;1.30;;;21.20;97.70;;;;;;4992470;28;20439;-67
2022/07/01 07:14:52;;;;;;;2.50;1.60;;;21.30;97.40;;;;;;4992146;28;20436;-67
2022/07/01 07:17:20;;;;;;;3.37;1.53;;;21.30;97.20;;;;;;4992259;28;20451;-68
2022/07/01 07:19:47;;;;;;;2.33;1.50;;;21.40;97.20;;;;;;4987073;28;20439;-67
2022/07/01 07:22:14;;;;;;;1.90;0.90;;;21.40;97.00;;;;;;4992403;28;20444;-67
2022/07/01 07:24:41;;;;;;;2.83;0.70;;;21.50;96.30;;;;;;4992152;28;20454;-67
2022/07/01 07:27:08;;;;;;;1.70;0.80;;;21.40;94.30;;;;;;4992139;28;21000;-69
2022/07/01 07:29:36;;;;;;;2.77;0.70;;;21.30;93.60;;;;;;4987642;28;20981;-67
2022/07/01 07:32:04;;;;;;;1.60;0.60;;;21.20;92.90;;;;;;4991364;28;20444;-68
2022/07/01 07:34:31;;;;;;;1.50;0.50;;;21.00;91.60;;;;;;4992414;28;20436;-67
2022/07/01 07:36:58;;;;;;;2.27;1.17;;;20.90;91.20;;;;;;4991537;28;20451;-67
2022/07/01 07:39:25;;;;;;;1.63;0.60;;;20.70;90.60;;;;;;4992228;28;20444;-67
2022/07/01 07:41:52;;;;;;;1.83;0.60;;;20.40;89.90;;;;;;4991633;28;20526;-67
2022/07/01 07:44:19;;;;;;;1.50;0.50;;;20.30;89.90;;;;;;4992053;28;20953;-67
2022/07/01 07:46:48;;;;;;;2.00;0.50;;;20.10;89.10;;;;;;4991416;28;20443;-67
2022/07/01 07:49:15;;;;;;;1.40;0.43;;;19.90;88.80;;;;;;4991992;28;20570;-67
2022/07/01 07:51:45;;;;;;;2.57;0.60;;;19.70;88.50;;;;;;4991644;28;20451;-67
2022/07/01 07:54:12;;;;;;;1.90;0.60;;;19.70;88.50;;;;;;4991731;28;20439;-69
2022/07/01 07:56:39;;;;;;;1.40;0.50;;;19.50;87.50;;;;;;4986877;28;20530;-67
2022/07/01 07:59:06;;;;;;;1.47;0.50;;;19.40;87.30;;;;;;4991332;28;20619;-67
2022/07/01 08:01:33;;;;;;;1.80;0.60;;;19.20;87.40;;;;;;4991799;28;20441;-67
2022/07/01 08:04:02;;;;;;;1.70;0.60;;;19.10;87.10;;;;;;4991472;28;20446;-68
2022/07/01 08:06:29;;;;;;;1.60;0.50;;;19.00;86.90;;;;;;4990058;28;20506;-66
2022/07/01 08:08:57;;;;;;;2.33;0.70;;;18.90;87.10;;;;;;4991627;28;20498;-66
2022/07/01 08:11:24;;;;;;;1.90;0.53;;;18.80;87.80;;;;;;4990821;28;21457;-67
2022/07/01 08:13:51;;;;;;;1.50;0.50;;;18.70;87.90;;;;;;4991072;28;20494;-68
2022/07/01 08:16:18;;;;;;;1.50;0.50;;;18.70;88.10;;;;;;4991182;28;20440;-66
2022/07/01 08:18:45;;;;;;;2.50;0.60;;;18.60;88.50;;;;;;4990283;28;20956;-67
2022/07/01 08:21:14;;;;;;;1.53;0.60;;;18.50;89.00;;;;;;4989994;28;20475;-68
2022/07/01 08:23:41;;;;;;;2.07;0.83;;;18.40;90.00;;;;;;4989558;28;20440;-67
2022/07/01 08:26:08;;;;;;;2.40;0.80;;;18.40;90.50;;;;;;4991720;28;20546;-67
2022/07/01 08:28:35;;;;;;;2.10;0.60;;;18.40;90.70;;;;;;4991433;28;20562;-67
2022/07/01 08:31:02;;;;;;;1.60;0.50;;;18.40;90.80;;;;;;4990078;28;20443;-66
2022/07/01 08:33:29;;;;;;;3.90;1.10;;;18.30;90.80;;;;;;4991457;28;20928;-67
2022/07/01 08:35:56;;;;;;;2.33;0.70;;;18.30;91.10;;;;;;4991133;28;20466;-67
2022/07/01 08:38:24;;;;;;;2.10;0.60;;;18.30;91.40;;;;;;4991086;28;20503;-67
2022/07/01 08:40:52;;;;;;;1.40;0.50;;;18.30;91.80;;;;;;4989386;28;20858;-67
2022/07/01 08:43:19;;;;;;;1.50;0.57;;;18.20;91.80;;;;;;4990966;28;20490;-68
2022/07/01 08:45:46;;;;;;;1.70;0.60;;;18.10;91.90;;;;;;4991318;28;20444;-69
2022/07/01 08:48:13;;;;;;;1.70;0.60;;;18.10;92.00;;;;;;4991256;28;20444;-66
2022/07/01 08:50:41;;;;;;;1.50;0.50;;;18.00;92.20;;;;;;4990111;28;20439;-67
2022/07/01 08:53:10;;;;;;;2.27;0.63;;;18.00;92.10;;;;;;4986175;28;20519;-66
2022/07/01 08:58:20;;;;;;;2.00;0.70;;;17.90;92.20;;;;;;4989990;28;20432;-67
2022/07/01 09:00:47;;;;;;;1.50;0.60;;;17.90;92.30;;;;;;4991402;28;20440;-67
2022/07/01 09:03:14;;;;;;;1.60;0.50;;;17.90;92.80;;;;;;4990386;28;20435;-67
2022/07/01 09:05:50;;;;;;;1.73;0.70;;;17.90;92.60;;;;;;4990976;28;20440;-67
2022/07/01 09:08:17;;;;;;;2.07;0.60;;;17.80;92.30;;;;;;4990760;28;20817;-66
2022/07/01 09:10:46;;;;;;;2.20;0.90;;;17.80;92.80;;;;;;4990849;28;20478;-66
2022/07/01 09:13:15;;;;;;;3.27;1.10;;;17.80;93.40;;;;;;4990984;28;20471;-70
2022/07/01 09:15:43;;;;;;;2.27;1.00;;;17.90;93.60;;;;;;4990769;28;20450;-66
2022/07/01 09:18:13;;;;;;;1.70;0.70;;;17.90;93.60;;;;;;4991245;28;20447;-66
2022/07/01 09:20:42;;;;;;;1.70;0.70;;;17.90;93.90;;;;;;4990426;28;20511;-67
2022/07/01 09:23:11;;;;;;;4.13;0.73;;;18.00;93.60;;;;;;4988152;28;20439;-66
2022/07/01 09:25:43;;;;;;;2.63;0.70;;;18.10;93.70;;;;;;4994707;28;20444;-67
2022/07/01 09:28:13;;;;;;;2.40;0.70;;;18.10;93.90;;;;;;4993765;28;20494;-67
2022/07/01 09:30:42;;;;;;;1.50;0.50;;;18.20;93.40;;;;;;4993499;28;21222;-66
2022/07/01 09:33:14;;;;;;;2.37;0.70;;;18.30;93.40;;;;;;4993050;28;20851;-67
2022/07/01 09:35:43;;;;;;;1.67;0.73;;;18.30;93.40;;;;;;4992188;28;20810;-67
2022/07/01 09:38:13;;;;;;;1.80;0.60;;;18.40;93.20;;;;;;4991471;28;20795;-67
2022/07/01 09:40:54;;;;;;;2.60;0.70;;;18.40;93.50;;;;;;4992846;28;20529;-66
2022/07/01 09:43:24;;;;;;;1.50;0.60;;;18.40;93.50;;;;;;4990799;28;20440;-66
2022/07/01 09:46:01;;;;;;;3.00;1.33;;;18.40;93.00;;;;;;4993696;28;20432;-66
2022/07/01 09:48:44;;;;;;;3.00;0.60;;;18.50;93.20;;;;;;4989833;28;20435;-66
2022/07/01 09:51:13;;;;;;;1.60;0.77;;;18.50;93.10;;;;;;4993225;28;20432;-67
2022/07/01 09:53:40;;;;;;;1.73;0.77;;;18.50;92.70;;;;;;4993807;28;20981;-68
2022/07/01 09:56:07;;;;;;;1.50;0.70;;;18.40;92.80;;;;;;4993470;28;20444;-67
2022/07/01 09:58:38;;;;;;;1.50;0.60;;;18.40;92.70;;;;;;4993611;28;20483;-67
2022/07/01 10:01:09;;;;;;;2.23;0.67;;;18.40;92.80;;;;;;4989583;28;20446;-67
2022/07/01 10:03:39;;;;;;;2.17;0.50;;;18.30;92.90;;;;;;4993260;28;20448;-67
2022/07/01 10:06:25;;;;;;;1.60;0.60;;;18.30;92.80;;;;;;4993730;28;20440;-69
2022/07/01 10:09:09;;;;;;;1.70;0.77;;;18.30;92.90;;;;;;4993526;28;20467;-66
2022/07/01 10:12:08;;;;;;;1.93;0.70;;;18.20;93.00;;;;;;4990692;28;20447;-68
2022/07/01 10:14:39;;;;;;;1.50;0.60;;;18.20;93.10;;;;;;4991885;28;20501;-67
2022/07/01 10:17:07;;;;;;;1.90;0.90;;;18.30;93.60;;;;;;4992896;28;20794;-67
2022/07/01 10:19:34;;;;;;;2.67;1.00;;;18.30;93.60;;;;;;4992910;28;20506;-67
2022/07/01 10:22:24;;;;;;;1.67;0.70;;;18.30;93.50;;;;;;4993396;28;20451;-67
2022/07/01 10:24:52;;;;;;;1.60;0.70;;;18.40;93.70;;;;;;4992383;28;20882;-66
2022/07/01 10:27:22;;;;;;;1.60;0.83;;;18.50;93.60;;;;;;4992046;28;20443;-67
2022/07/01 10:30:10;;;;;;;2.53;0.83;;;18.50;93.60;;;;;;4992146;28;20585;-66
2022/07/01 10:32:43;;;;;;;1.60;0.60;;;18.60;93.80;;;;;;4992625;28;20455;-69
2022/07/01 10:35:10;;;;;;;1.97;0.73;;;18.60;93.50;;;;;;4988541;28;20432;-66
2022/07/01 10:37:58;;;;;;;1.80;0.70;;;18.60;93.60;;;;;;4993235;28;20494;-66
2022/07/01 10:40:40;;;;;;;2.73;0.70;;;18.60;93.20;;;;;;4990177;28;20444;-67
2022/07/01 10:43:07;;;;;;;1.60;0.60;;;18.60;93.10;;;;;;4993037;28;20938;-66
2022/07/01 10:45:44;;;;;;;1.80;0.53;;;18.70;92.90;;;;;;4992792;28;20919;-67
2022/07/01 10:48:22;;;;;;;1.60;0.60;;;18.70;93.10;;;;;;4992976;28;20443;-69
2022/07/01 10:50:50;;;;;;;1.70;0.70;;;18.70;93.00;;;;;;4990373;28;21069;-66
2022/07/01 10:53:17;;;;;;;1.63;0.63;;;18.70;92.90;;;;;;4993108;28;20448;-66
2022/07/01 10:55:47;;;;;;;1.50;0.57;;;18.70;93.00;;;;;;4992209;28;20475;-66
2022/07/01 10:58:18;;;;;;;2.47;0.70;;;18.70;92.10;;;;;;4993053;28;20471;-66
2022/07/01 11:00:50;;;;;;;1.50;0.70;;;18.70;91.70;;;;;;4992638;28;20440;-67
2022/07/01 11:03:20;;;;;;;2.03;0.87;;;18.80;92.30;;;;;;4992642;28;20494;-67
2022/07/01 11:05:52;;;;;;;1.60;0.57;;;18.80;92.60;;;;;;4992036;28;20439;-67
2022/07/01 11:08:19;;;;;;;2.60;0.80;;;18.90;92.90;;;;;;4992071;28;20459;-68
2022/07/01 11:10:51;;;;;;;1.60;0.70;;;18.90;92.70;;;;;;4992173;28;20861;-66
2022/07/01 11:13:20;;;;;;;1.60;0.60;;;19.00;92.70;;;;;;4992736;28;20451;-66
2022/07/01 11:15:49;;;;;;;1.80;0.80;;;19.00;91.90;;;;;;4991968;28;20843;-68
2022/07/01 11:18:19;;;;;;;2.63;0.90;;;19.00;91.60;;;;;;4988425;28;20534;-70
2022/07/01 11:20:47;;;;;;;2.80;0.80;;;19.00;91.80;;;;;;4992100;28;20452;-67
2022/07/01 11:23:16;;;;;;;3.27;0.63;;;19.10;91.70;;;;;;4992517;28;20838;-66
2022/07/01 11:25:43;;;;;;;1.50;0.60;;;19.10;91.90;;;;;;4991962;28;20432;-67
2022/07/01 11:28:12;;;;;;;1.93;0.80;;;19.20;92.30;;;;;;4992594;28;20482;-67
2022/07/01 11:30:39;;;;;;;1.60;0.70;;;19.20;92.30;;;;;;4991857;28;20819;-67
2022/07/01 11:33:09;;;;;;;2.33;0.90;;;19.30;92.00;;;;;;4991518;28;20450;-68
2022/07/01 11:41:09;;;;;;;3.17;1.17;;;19.40;91.60;;;;;;4991780;28;20843;-66
2022/07/01 11:43:38;;;;;;;2.00;1.20;;;19.30;91.50;;;;;;4987783;28;20438;-66
2022/07/01 11:46:07;;;;;;;4.00;1.10;;;19.30;91.80;;;;;;4990749;28;20439;-67
2022/07/01 11:48:39;;;;;;;3.40;1.03;;;19.20;91.50;;;;;;4991481;28;20439;-68
2022/07/01 11:51:12;;;;;;;1.70;0.80;;;19.10;91.80;;;;;;4987955;28;20490;-67
2022/07/01 11:53:42;;;;;;;2.67;1.00;;;19.10;91.90;;;;;;4990200;28;20436;-67
2022/07/01 11:56:09;;;;;;;2.30;1.10;;;19.10;90.90;;;;;;4988798;28;20435;-69
2022/07/01 11:58:54;;;;;;;2.03;1.27;;;19.20;91.00;;;;;;4990900;28;20938;-67
2022/07/01 12:01:26;;;;;;;1.90;1.00;;;19.20;91.10;;;;;;4991082;28;20475;-68
2022/07/01 12:03:56;;;;;;;5.10;1.00;;;19.20;90.80;;;;;;4990750;28;20457;-67
2022/07/01 12:06:24;;;;;;;1.70;0.73;;;19.10;90.50;;;;;;4991377;28;20459;-67
2022/07/01 12:08:53;;;;;;;2.20;0.80;;;19.00;90.90;;;;;;4990318;28;20443;-67
2022/07/01 12:11:22;;;;;;;1.70;0.90;;;19.00;91.10;;;;;;4991442;28;20491;-67
2022/07/01 12:13:50;;;;;;;3.93;1.00;;;18.90;91.40;;;;;;4991277;28;20439;-67
2022/07/01 12:16:18;;;;;;;3.07;0.97;;;18.80;91.10;;;;;;4991500;28;20443;-68
2022/07/01 12:19:02;;;;;;;2.40;1.00;;;18.60;90.60;;;;;;4986950;28;21001;-67
2022/07/01 12:21:30;;;;;;;1.70;0.93;;;18.30;91.50;;;;;;4991276;28;20442;-70
2022/07/01 12:24:12;;;;;;;3.80;3.50;;;18.20;91.60;;;;;;4991259;28;20472;-67
2022/07/01 12:27:05;;;;;;;4.90;2.43;;;18.10;92.50;;;;;;4990125;28;20927;-67
2022/07/01 12:29:50;;;;;;;4.13;2.13;;;18.10;92.90;;;;;;4991210;28;20464;-69
2022/07/01 12:32:22;;;;;;;1.90;1.10;;;18.10;93.30;;;;;;4989340;28;20782;-70
2022/07/01 12:34:52;;;;;;;1.90;1.10;;;18.00;92.90;;;;;;4991444;28;20519;-68
2022/07/01 12:37:21;;;;;;;2.07;1.10;;;17.90;93.00;;;;;;4990768;28;20451;-69
2022/07/01 12:39:50;;;;;;;2.20;1.00;;;17.80;93.10;;;;;;4991216;28;20436;-67
2022/07/01 12:42:27;;;;;;;1.83;0.90;;;17.80;93.50;;;;;;4990614;28;20490;-68
2022/07/01 12:44:55;;;;;;;2.90;0.90;;;17.80;94.00;;;;;;4990520;28;21143;-67
2022/07/01 12:47:31;;;;;;;3.10;0.83;;;18.00;94.10;;;;;;4991128;28;20926;-68
2022/07/01 12:50:15;;;;;;;2.37;1.10;;;18.20;94.60;;;;;;4987811;28;20493;-68
2022/07/01 12:52:47;;;;;;;2.93;1.67;;;18.30;95.20;;;;;;4989422;28;20426;-68
2022/07/01 12:55:16;;;;;;;3.60;1.70;;;18.40;95.40;;;;;;4990245;28;20436;-67
2022/07/01 12:57:46;;;;;;;2.20;1.30;;;18.40;95.40;;;;;;4991160;28;20447;-67
2022/07/01 13:00:15;;;;;;;2.00;1.20;;;18.50;95.30;;;;;;4993947;28;20463;-68
2022/07/01 13:02:43;;;;;;;2.40;1.40;;;18.40;95.20;;;;;;4994013;28;20451;-67
2022/07/01 13:05:11;;;;;;;1.80;0.90;;;18.40;94.90;;;;;;4994995;28;20455;-68
2022/07/01 13:07:39;;;;;;;2.60;1.53;;;18.30;94.30;;;;;;4995137;28;20575;-70
2022/07/01 13:10:07;;;;;;;1.83;1.17;;;18.30;94.40;;;;;;4993164;28;20977;-67
2022/07/01 13:12:34;;;;;;;1.90;0.93;;;18.30;94.80;;;;;;4994965;28;20440;-68
2022/07/01 13:15:02;;;;;;;1.90;1.20;;;18.40;94.40;;;;;;4994337;28;20446;-68
2022/07/01 13:17:29;;;;;;;1.70;0.70;;;18.30;94.30;;;;;;4994776;28;21217;-68